sensor_id;sensor_type;location;lat;lon;timestamp;P1;durP1;ratioP1;P2;durP2;ratioP2
59516;SDS011;45342;42.662;27.718;2024-01-06T00:00:47;4.22;;;3.30;;
59516;SDS011;45342;42.662;27.718;2024-01-06T00:03:14;3.95;;;3.28;;
59516;SDS011;45342;42.662;27.718;2024-01-06T00:05:40;4.25;;;3.13;;
59516;SDS011;45342;42.662;27.718;2024-01-06T00:08:06;4.43;;;3.28;;
59516;SDS011;45342;42.662;27.718;2024-01-06T00:10:31;4.80;;;3.30;;
59516;SDS011;45342;42.662;27.718;2024-01-06T00:12:57;3.42;;;3.00;;
59516;SDS011;45342;42.662;27.718;2024-01-06T00:15:23;4.57;;;3.10;;
59516;SDS011;45342;42.662;27.718;2024-01-06T00:17:49;3.65;;;3.13;;
59516;SDS011;45342;42.662;27.718;2024-01-06T00:20:14;4.45;;;3.35;;
59516;SDS011;45342;42.662;27.718;2024-01-06T00:22:40;3.65;;;2.88;;
59516;SDS011;45342;42.662;27.718;2024-01-06T00:25:19;3.90;;;3.20;;
59516;SDS011;45342;42.662;27.718;2024-01-06T00:28:21;3.33;;;2.95;;
59516;SDS011;45342;42.662;27.718;2024-01-06T00:30:47;3.53;;;2.88;;
59516;SDS011;45342;42.662;27.718;2024-01-06T00:33:13;3.83;;;3.25;;
59516;SDS011;45342;42.662;27.718;2024-01-06T00:35:39;3.72;;;3.00;;
59516;SDS011;45342;42.662;27.718;2024-01-06T00:38:04;3.30;;;3.00;;
59516;SDS011;45342;42.662;27.718;2024-01-06T00:40:30;3.67;;;2.97;;
59516;SDS011;45342;42.662;27.718;2024-01-06T00:42:59;3.85;;;3.45;;
59516;SDS011;45342;42.662;27.718;2024-01-06T00:45:25;4.47;;;3.33;;
59516;SDS011;45342;42.662;27.718;2024-01-06T00:47:51;4.40;;;3.40;;
59516;SDS011;45342;42.662;27.718;2024-01-06T00:50:19;3.60;;;3.05;;
59516;SDS011;45342;42.662;27.718;2024-01-06T00:52:45;4.47;;;3.20;;
59516;SDS011;45342;42.662;27.718;2024-01-06T00:55:11;4.55;;;3.33;;
59516;SDS011;45342;42.662;27.718;2024-01-06T00:57:36;3.45;;;3.05;;
59516;SDS011;45342;42.662;27.718;2024-01-06T01:00:03;3.45;;;3.10;;
59516;SDS011;45342;42.662;27.718;2024-01-06T01:02:32;3.75;;;3.15;;
59516;SDS011;45342;42.662;27.718;2024-01-06T01:04:58;3.15;;;2.80;;
59516;SDS011;45342;42.662;27.718;2024-01-06T01:07:25;3.47;;;3.03;;
59516;SDS011;45342;42.662;27.718;2024-01-06T01:09:52;4.47;;;3.40;;
59516;SDS011;45342;42.662;27.718;2024-01-06T01:12:18;3.72;;;3.10;;
59516;SDS011;45342;42.662;27.718;2024-01-06T01:14:43;5.18;;;4.07;;
59516;SDS011;45342;42.662;27.718;2024-01-06T01:17:10;5.40;;;4.10;;
59516;SDS011;45342;42.662;27.718;2024-01-06T01:19:36;5.88;;;4.80;;
59516;SDS011;45342;42.662;27.718;2024-01-06T01:22:01;6.50;;;5.15;;
59516;SDS011;45342;42.662;27.718;2024-01-06T01:24:27;6.68;;;5.43;;
59516;SDS011;45342;42.662;27.718;2024-01-06T01:26:53;6.10;;;4.80;;
59516;SDS011;45342;42.662;27.718;2024-01-06T01:29:18;8.93;;;5.22;;
59516;SDS011;45342;42.662;27.718;2024-01-06T01:31:45;6.35;;;4.65;;
59516;SDS011;45342;42.662;27.718;2024-01-06T01:34:20;6.90;;;5.13;;
59516;SDS011;45342;42.662;27.718;2024-01-06T01:36:46;5.22;;;4.05;;
59516;SDS011;45342;42.662;27.718;2024-01-06T01:39:12;5.35;;;4.15;;
59516;SDS011;45342;42.662;27.718;2024-01-06T01:41:38;6.18;;;4.28;;
59516;SDS011;45342;42.662;27.718;2024-01-06T01:44:04;5.55;;;4.28;;
59516;SDS011;45342;42.662;27.718;2024-01-06T01:46:30;5.13;;;4.22;;
59516;SDS011;45342;42.662;27.718;2024-01-06T01:48:56;6.78;;;4.25;;
59516;SDS011;45342;42.662;27.718;2024-01-06T01:51:24;5.53;;;4.22;;
59516;SDS011;45342;42.662;27.718;2024-01-06T01:53:52;5.60;;;4.30;;
59516;SDS011;45342;42.662;27.718;2024-01-06T01:56:18;5.22;;;4.10;;
59516;SDS011;45342;42.662;27.718;2024-01-06T01:58:45;4.65;;;3.80;;
59516;SDS011;45342;42.662;27.718;2024-01-06T02:03:37;4.20;;;3.53;;
59516;SDS011;45342;42.662;27.718;2024-01-06T02:06:03;4.28;;;3.67;;
59516;SDS011;45342;42.662;27.718;2024-01-06T02:08:29;4.95;;;3.97;;
59516;SDS011;45342;42.662;27.718;2024-01-06T02:10:55;4.00;;;3.45;;
59516;SDS011;45342;42.662;27.718;2024-01-06T02:13:22;4.15;;;3.70;;
59516;SDS011;45342;42.662;27.718;2024-01-06T02:15:47;4.63;;;3.70;;
59516;SDS011;45342;42.662;27.718;2024-01-06T02:18:13;5.05;;;3.40;;
59516;SDS011;45342;42.662;27.718;2024-01-06T02:20:41;3.75;;;3.30;;
59516;SDS011;45342;42.662;27.718;2024-01-06T02:23:09;3.90;;;3.22;;
59516;SDS011;45342;42.662;27.718;2024-01-06T02:25:35;4.57;;;3.58;;
59516;SDS011;45342;42.662;27.718;2024-01-06T02:28:01;4.50;;;3.63;;
59516;SDS011;45342;42.662;27.718;2024-01-06T02:30:27;4.32;;;3.40;;
59516;SDS011;45342;42.662;27.718;2024-01-06T02:32:53;4.43;;;3.80;;
59516;SDS011;45342;42.662;27.718;2024-01-06T02:35:19;4.40;;;3.55;;
59516;SDS011;45342;42.662;27.718;2024-01-06T02:37:45;3.97;;;3.25;;
59516;SDS011;45342;42.662;27.718;2024-01-06T02:40:11;5.05;;;3.60;;
59516;SDS011;45342;42.662;27.718;2024-01-06T02:42:38;4.38;;;3.72;;
59516;SDS011;45342;42.662;27.718;2024-01-06T02:45:04;3.97;;;3.28;;
59516;SDS011;45342;42.662;27.718;2024-01-06T02:47:30;4.25;;;3.53;;
59516;SDS011;45342;42.662;27.718;2024-01-06T02:49:56;5.60;;;3.60;;
59516;SDS011;45342;42.662;27.718;2024-01-06T02:52:21;4.78;;;3.65;;
59516;SDS011;45342;42.662;27.718;2024-01-06T02:54:47;3.88;;;3.17;;
59516;SDS011;45342;42.662;27.718;2024-01-06T02:57:13;4.65;;;3.47;;
59516;SDS011;45342;42.662;27.718;2024-01-06T02:59:39;3.95;;;3.42;;
59516;SDS011;45342;42.662;27.718;2024-01-06T03:02:05;4.32;;;3.40;;
59516;SDS011;45342;42.662;27.718;2024-01-06T03:04:33;5.25;;;3.30;;
59516;SDS011;45342;42.662;27.718;2024-01-06T03:06:59;4.03;;;3.17;;
59516;SDS011;45342;42.662;27.718;2024-01-06T03:09:25;5.47;;;3.53;;
59516;SDS011;45342;42.662;27.718;2024-01-06T03:11:51;4.13;;;3.40;;
59516;SDS011;45342;42.662;27.718;2024-01-06T03:14:16;3.97;;;3.40;;
59516;SDS011;45342;42.662;27.718;2024-01-06T03:16:42;4.28;;;3.38;;
59516;SDS011;45342;42.662;27.718;2024-01-06T03:19:08;4.30;;;3.60;;
59516;SDS011;45342;42.662;27.718;2024-01-06T03:21:33;3.95;;;3.50;;
59516;SDS011;45342;42.662;27.718;2024-01-06T03:24:00;3.15;;;2.85;;
59516;SDS011;45342;42.662;27.718;2024-01-06T03:26:26;4.15;;;3.13;;
59516;SDS011;45342;42.662;27.718;2024-01-06T03:28:52;4.72;;;3.40;;
59516;SDS011;45342;42.662;27.718;2024-01-06T03:31:19;4.65;;;3.35;;
59516;SDS011;45342;42.662;27.718;2024-01-06T03:33:48;3.60;;;3.00;;
59516;SDS011;45342;42.662;27.718;2024-01-06T03:36:14;3.95;;;3.30;;
59516;SDS011;45342;42.662;27.718;2024-01-06T03:38:42;4.05;;;3.30;;
59516;SDS011;45342;42.662;27.718;2024-01-06T03:41:07;3.38;;;3.08;;
59516;SDS011;45342;42.662;27.718;2024-01-06T03:43:33;3.85;;;3.28;;
59516;SDS011;45342;42.662;27.718;2024-01-06T03:46:16;3.10;;;2.80;;
59516;SDS011;45342;42.662;27.718;2024-01-06T03:48:43;4.53;;;3.33;;
59516;SDS011;45342;42.662;27.718;2024-01-06T03:51:09;3.58;;;3.00;;
59516;SDS011;45342;42.662;27.718;2024-01-06T03:53:35;4.03;;;3.30;;
59516;SDS011;45342;42.662;27.718;2024-01-06T03:56:02;3.25;;;2.95;;
59516;SDS011;45342;42.662;27.718;2024-01-06T03:58:28;4.13;;;3.22;;
59516;SDS011;45342;42.662;27.718;2024-01-06T04:00:54;3.80;;;3.30;;
59516;SDS011;45342;42.662;27.718;2024-01-06T04:03:20;3.83;;;3.30;;
59516;SDS011;45342;42.662;27.718;2024-01-06T04:05:46;3.78;;;3.10;;
59516;SDS011;45342;42.662;27.718;2024-01-06T04:08:11;5.22;;;3.35;;
59516;SDS011;45342;42.662;27.718;2024-01-06T04:10:37;3.60;;;3.10;;
59516;SDS011;45342;42.662;27.718;2024-01-06T04:13:03;3.92;;;3.30;;
59516;SDS011;45342;42.662;27.718;2024-01-06T04:15:29;3.42;;;3.03;;
59516;SDS011;45342;42.662;27.718;2024-01-06T04:18:00;4.32;;;3.17;;
59516;SDS011;45342;42.662;27.718;2024-01-06T04:20:27;3.92;;;3.13;;
59516;SDS011;45342;42.662;27.718;2024-01-06T04:22:53;4.05;;;3.30;;
59516;SDS011;45342;42.662;27.718;2024-01-06T04:25:19;4.43;;;3.25;;
59516;SDS011;45342;42.662;27.718;2024-01-06T04:27:45;4.53;;;3.20;;
59516;SDS011;45342;42.662;27.718;2024-01-06T04:30:12;5.50;;;3.42;;
59516;SDS011;45342;42.662;27.718;2024-01-06T04:32:38;3.78;;;2.92;;
59516;SDS011;45342;42.662;27.718;2024-01-06T04:35:04;3.90;;;3.20;;
59516;SDS011;45342;42.662;27.718;2024-01-06T04:37:30;3.10;;;2.80;;
59516;SDS011;45342;42.662;27.718;2024-01-06T04:39:55;3.90;;;3.15;;
59516;SDS011;45342;42.662;27.718;2024-01-06T04:42:22;4.35;;;3.25;;
59516;SDS011;45342;42.662;27.718;2024-01-06T04:44:49;4.95;;;3.53;;
59516;SDS011;45342;42.662;27.718;2024-01-06T04:47:15;4.72;;;3.40;;
59516;SDS011;45342;42.662;27.718;2024-01-06T04:49:40;4.43;;;3.42;;
59516;SDS011;45342;42.662;27.718;2024-01-06T04:52:06;3.80;;;3.05;;
59516;SDS011;45342;42.662;27.718;2024-01-06T04:54:32;3.10;;;2.80;;
59516;SDS011;45342;42.662;27.718;2024-01-06T04:56:59;4.13;;;3.15;;
59516;SDS011;45342;42.662;27.718;2024-01-06T04:59:24;4.65;;;3.17;;
59516;SDS011;45342;42.662;27.718;2024-01-06T05:01:51;4.00;;;3.25;;
59516;SDS011;45342;42.662;27.718;2024-01-06T05:04:17;4.70;;;3.45;;
59516;SDS011;45342;42.662;27.718;2024-01-06T05:06:43;3.38;;;3.00;;
59516;SDS011;45342;42.662;27.718;2024-01-06T05:09:09;3.78;;;3.35;;
59516;SDS011;45342;42.662;27.718;2024-01-06T05:11:34;3.95;;;2.97;;
59516;SDS011;45342;42.662;27.718;2024-01-06T05:14:00;3.85;;;3.00;;
59516;SDS011;45342;42.662;27.718;2024-01-06T05:16:26;3.70;;;3.28;;
59516;SDS011;45342;42.662;27.718;2024-01-06T05:18:53;4.78;;;3.47;;
59516;SDS011;45342;42.662;27.718;2024-01-06T05:21:42;4.25;;;3.10;;
59516;SDS011;45342;42.662;27.718;2024-01-06T05:24:06;3.78;;;3.03;;
59516;SDS011;45342;42.662;27.718;2024-01-06T05:26:32;3.83;;;3.08;;
59516;SDS011;45342;42.662;27.718;2024-01-06T05:28:58;3.58;;;3.10;;
59516;SDS011;45342;42.662;27.718;2024-01-06T05:31:24;4.03;;;3.38;;
59516;SDS011;45342;42.662;27.718;2024-01-06T05:36:20;3.67;;;3.08;;
59516;SDS011;45342;42.662;27.718;2024-01-06T05:38:46;5.75;;;3.53;;
59516;SDS011;45342;42.662;27.718;2024-01-06T05:41:13;4.20;;;3.15;;
59516;SDS011;45342;42.662;27.718;2024-01-06T05:43:39;3.45;;;3.00;;
59516;SDS011;45342;42.662;27.718;2024-01-06T05:46:07;4.82;;;3.38;;
59516;SDS011;45342;42.662;27.718;2024-01-06T05:48:32;3.65;;;2.85;;
59516;SDS011;45342;42.662;27.718;2024-01-06T05:50:58;4.22;;;3.25;;
59516;SDS011;45342;42.662;27.718;2024-01-06T05:53:24;3.83;;;3.22;;
59516;SDS011;45342;42.662;27.718;2024-01-06T05:55:51;3.63;;;2.95;;
59516;SDS011;45342;42.662;27.718;2024-01-06T05:58:19;3.53;;;3.22;;
59516;SDS011;45342;42.662;27.718;2024-01-06T06:00:45;4.38;;;3.10;;
59516;SDS011;45342;42.662;27.718;2024-01-06T06:03:12;3.85;;;3.00;;
59516;SDS011;45342;42.662;27.718;2024-01-06T06:05:37;4.25;;;3.10;;
59516;SDS011;45342;42.662;27.718;2024-01-06T06:08:04;3.92;;;3.25;;
59516;SDS011;45342;42.662;27.718;2024-01-06T06:10:30;3.75;;;3.35;;
59516;SDS011;45342;42.662;27.718;2024-01-06T06:13:06;4.43;;;3.13;;
59516;SDS011;45342;42.662;27.718;2024-01-06T06:15:36;3.33;;;2.90;;
59516;SDS011;45342;42.662;27.718;2024-01-06T06:18:01;4.45;;;3.25;;
59516;SDS011;45342;42.662;27.718;2024-01-06T06:20:27;3.67;;;3.25;;
59516;SDS011;45342;42.662;27.718;2024-01-06T06:22:53;3.95;;;3.13;;
59516;SDS011;45342;42.662;27.718;2024-01-06T06:25:19;4.68;;;3.35;;
59516;SDS011;45342;42.662;27.718;2024-01-06T06:27:44;4.28;;;3.28;;
59516;SDS011;45342;42.662;27.718;2024-01-06T06:30:10;3.78;;;2.88;;
59516;SDS011;45342;42.662;27.718;2024-01-06T06:32:36;4.63;;;3.55;;
59516;SDS011;45342;42.662;27.718;2024-01-06T06:35:04;3.95;;;3.17;;
59516;SDS011;45342;42.662;27.718;2024-01-06T06:37:30;3.42;;;3.10;;
59516;SDS011;45342;42.662;27.718;2024-01-06T06:42:22;4.25;;;3.20;;
59516;SDS011;45342;42.662;27.718;2024-01-06T06:44:48;4.60;;;3.17;;
59516;SDS011;45342;42.662;27.718;2024-01-06T06:47:13;3.40;;;2.85;;
59516;SDS011;45342;42.662;27.718;2024-01-06T06:49:39;4.28;;;3.05;;
59516;SDS011;45342;42.662;27.718;2024-01-06T06:52:05;3.50;;;2.90;;
59516;SDS011;45342;42.662;27.718;2024-01-06T06:54:32;11.65;;;8.30;;
59516;SDS011;45342;42.662;27.718;2024-01-06T06:56:57;11.38;;;7.53;;
59516;SDS011;45342;42.662;27.718;2024-01-06T06:59:24;12.48;;;6.18;;
59516;SDS011;45342;42.662;27.718;2024-01-06T07:01:50;10.07;;;5.45;;
59516;SDS011;45342;42.662;27.718;2024-01-06T07:04:16;8.30;;;5.65;;
59516;SDS011;45342;42.662;27.718;2024-01-06T07:06:42;7.68;;;4.93;;
59516;SDS011;45342;42.662;27.718;2024-01-06T07:09:07;6.97;;;4.53;;
59516;SDS011;45342;42.662;27.718;2024-01-06T07:11:35;9.55;;;5.20;;
59516;SDS011;45342;42.662;27.718;2024-01-06T07:14:01;7.05;;;5.05;;
59516;SDS011;45342;42.662;27.718;2024-01-06T07:16:27;6.13;;;4.60;;
59516;SDS011;45342;42.662;27.718;2024-01-06T07:18:52;7.53;;;4.95;;
59516;SDS011;45342;42.662;27.718;2024-01-06T07:21:18;8.68;;;5.07;;
59516;SDS011;45342;42.662;27.718;2024-01-06T07:23:44;6.85;;;4.68;;
59516;SDS011;45342;42.662;27.718;2024-01-06T07:26:10;6.85;;;4.60;;
59516;SDS011;45342;42.662;27.718;2024-01-06T07:28:35;7.72;;;4.97;;
59516;SDS011;45342;42.662;27.718;2024-01-06T07:31:01;8.10;;;4.85;;
59516;SDS011;45342;42.662;27.718;2024-01-06T07:33:27;7.03;;;4.95;;
59516;SDS011;45342;42.662;27.718;2024-01-06T07:38:19;6.43;;;4.55;;
59516;SDS011;45342;42.662;27.718;2024-01-06T07:40:44;5.85;;;4.10;;
59516;SDS011;45342;42.662;27.718;2024-01-06T07:43:10;7.85;;;4.65;;
59516;SDS011;45342;42.662;27.718;2024-01-06T07:45:36;6.82;;;4.47;;
59516;SDS011;45342;42.662;27.718;2024-01-06T07:48:01;6.47;;;4.90;;
59516;SDS011;45342;42.662;27.718;2024-01-06T07:50:27;6.43;;;4.70;;
59516;SDS011;45342;42.662;27.718;2024-01-06T07:55:19;6.18;;;4.47;;
59516;SDS011;45342;42.662;27.718;2024-01-06T07:57:45;7.93;;;4.43;;
59516;SDS011;45342;42.662;27.718;2024-01-06T08:00:12;8.00;;;6.07;;
59516;SDS011;45342;42.662;27.718;2024-01-06T08:02:40;7.72;;;4.80;;
59516;SDS011;45342;42.662;27.718;2024-01-06T08:05:06;7.43;;;5.05;;
59516;SDS011;45342;42.662;27.718;2024-01-06T08:07:32;7.10;;;4.95;;
59516;SDS011;45342;42.662;27.718;2024-01-06T08:09:58;6.72;;;4.63;;
59516;SDS011;45342;42.662;27.718;2024-01-06T08:12:24;6.65;;;4.90;;
59516;SDS011;45342;42.662;27.718;2024-01-06T08:14:50;8.02;;;5.07;;
59516;SDS011;45342;42.662;27.718;2024-01-06T08:19:42;7.88;;;4.80;;
59516;SDS011;45342;42.662;27.718;2024-01-06T08:22:16;6.15;;;4.50;;
59516;SDS011;45342;42.662;27.718;2024-01-06T08:24:50;6.13;;;4.22;;
59516;SDS011;45342;42.662;27.718;2024-01-06T08:29:46;8.75;;;4.40;;
59516;SDS011;45342;42.662;27.718;2024-01-06T08:32:12;6.03;;;4.60;;
59516;SDS011;45342;42.662;27.718;2024-01-06T08:34:40;5.25;;;4.20;;
59516;SDS011;45342;42.662;27.718;2024-01-06T08:37:05;6.57;;;4.38;;
59516;SDS011;45342;42.662;27.718;2024-01-06T08:39:31;5.40;;;3.92;;
59516;SDS011;45342;42.662;27.718;2024-01-06T08:41:57;5.70;;;3.83;;
59516;SDS011;45342;42.662;27.718;2024-01-06T08:46:51;5.63;;;3.97;;
59516;SDS011;45342;42.662;27.718;2024-01-06T08:49:16;5.15;;;3.83;;
59516;SDS011;45342;42.662;27.718;2024-01-06T08:51:42;6.35;;;4.05;;
59516;SDS011;45342;42.662;27.718;2024-01-06T08:54:08;8.43;;;4.35;;
59516;SDS011;45342;42.662;27.718;2024-01-06T08:56:34;5.80;;;3.80;;
59516;SDS011;45342;42.662;27.718;2024-01-06T08:59:00;7.43;;;4.18;;
59516;SDS011;45342;42.662;27.718;2024-01-06T09:01:25;8.02;;;4.40;;
59516;SDS011;45342;42.662;27.718;2024-01-06T09:03:52;5.60;;;4.10;;
59516;SDS011;45342;42.662;27.718;2024-01-06T09:06:18;8.48;;;4.30;;
59516;SDS011;45342;42.662;27.718;2024-01-06T09:08:43;7.85;;;4.30;;
59516;SDS011;45342;42.662;27.718;2024-01-06T09:11:09;7.65;;;4.40;;
59516;SDS011;45342;42.662;27.718;2024-01-06T09:13:35;7.40;;;4.00;;
59516;SDS011;45342;42.662;27.718;2024-01-06T09:16:00;8.15;;;4.15;;
59516;SDS011;45342;42.662;27.718;2024-01-06T09:18:26;7.30;;;4.35;;
59516;SDS011;45342;42.662;27.718;2024-01-06T09:20:53;7.40;;;4.20;;
59516;SDS011;45342;42.662;27.718;2024-01-06T09:23:19;6.82;;;4.30;;
59516;SDS011;45342;42.662;27.718;2024-01-06T09:25:46;9.73;;;4.40;;
59516;SDS011;45342;42.662;27.718;2024-01-06T09:28:15;7.70;;;3.88;;
59516;SDS011;45342;42.662;27.718;2024-01-06T09:30:41;8.85;;;4.20;;
59516;SDS011;45342;42.662;27.718;2024-01-06T09:33:10;8.65;;;4.30;;
59516;SDS011;45342;42.662;27.718;2024-01-06T09:35:35;8.73;;;4.55;;
59516;SDS011;45342;42.662;27.718;2024-01-06T09:38:01;12.55;;;4.60;;
59516;SDS011;45342;42.662;27.718;2024-01-06T09:40:27;10.10;;;4.28;;
59516;SDS011;45342;42.662;27.718;2024-01-06T09:42:57;9.27;;;4.13;;
59516;SDS011;45342;42.662;27.718;2024-01-06T09:45:22;12.27;;;4.40;;
59516;SDS011;45342;42.662;27.718;2024-01-06T09:47:49;10.32;;;4.20;;
59516;SDS011;45342;42.662;27.718;2024-01-06T09:50:17;8.75;;;4.20;;
59516;SDS011;45342;42.662;27.718;2024-01-06T09:52:45;12.77;;;4.95;;
59516;SDS011;45342;42.662;27.718;2024-01-06T09:55:17;12.02;;;4.35;;
59516;SDS011;45342;42.662;27.718;2024-01-06T09:57:45;9.38;;;4.55;;
59516;SDS011;45342;42.662;27.718;2024-01-06T10:00:11;12.90;;;4.65;;
59516;SDS011;45342;42.662;27.718;2024-01-06T10:02:37;12.38;;;4.93;;
59516;SDS011;45342;42.662;27.718;2024-01-06T10:05:03;8.48;;;4.63;;
59516;SDS011;45342;42.662;27.718;2024-01-06T10:07:30;11.93;;;5.07;;
59516;SDS011;45342;42.662;27.718;2024-01-06T10:09:55;12.77;;;5.03;;
59516;SDS011;45342;42.662;27.718;2024-01-06T10:12:24;11.85;;;4.80;;
59516;SDS011;45342;42.662;27.718;2024-01-06T10:14:51;12.57;;;5.05;;
59516;SDS011;45342;42.662;27.718;2024-01-06T10:17:17;10.32;;;4.97;;
59516;SDS011;45342;42.662;27.718;2024-01-06T10:19:46;10.20;;;4.72;;
59516;SDS011;45342;42.662;27.718;2024-01-06T10:22:15;11.85;;;4.75;;
59516;SDS011;45342;42.662;27.718;2024-01-06T10:24:41;9.95;;;4.32;;
59516;SDS011;45342;42.662;27.718;2024-01-06T10:27:06;9.55;;;5.40;;
59516;SDS011;45342;42.662;27.718;2024-01-06T10:29:34;12.77;;;5.00;;
59516;SDS011;45342;42.662;27.718;2024-01-06T10:32:00;9.23;;;4.68;;
59516;SDS011;45342;42.662;27.718;2024-01-06T10:34:26;12.75;;;5.63;;
59516;SDS011;45342;42.662;27.718;2024-01-06T10:36:52;12.40;;;4.68;;
59516;SDS011;45342;42.662;27.718;2024-01-06T10:39:19;10.93;;;5.22;;
59516;SDS011;45342;42.662;27.718;2024-01-06T10:41:46;9.32;;;4.65;;
59516;SDS011;45342;42.662;27.718;2024-01-06T10:44:14;11.77;;;5.10;;
59516;SDS011;45342;42.662;27.718;2024-01-06T10:46:43;12.10;;;4.97;;
59516;SDS011;45342;42.662;27.718;2024-01-06T10:49:10;12.43;;;5.60;;
59516;SDS011;45342;42.662;27.718;2024-01-06T10:54:05;8.88;;;4.97;;
59516;SDS011;45342;42.662;27.718;2024-01-06T10:56:31;13.18;;;5.13;;
59516;SDS011;45342;42.662;27.718;2024-01-06T10:59:03;13.50;;;5.55;;
59516;SDS011;45342;42.662;27.718;2024-01-06T11:01:29;10.15;;;5.00;;
59516;SDS011;45342;42.662;27.718;2024-01-06T11:03:56;11.10;;;5.10;;
59516;SDS011;45342;42.662;27.718;2024-01-06T11:06:24;11.10;;;4.88;;
59516;SDS011;45342;42.662;27.718;2024-01-06T11:08:57;10.23;;;4.78;;
59516;SDS011;45342;42.662;27.718;2024-01-06T11:11:27;11.07;;;4.90;;
59516;SDS011;45342;42.662;27.718;2024-01-06T11:13:53;11.73;;;5.07;;
59516;SDS011;45342;42.662;27.718;2024-01-06T11:16:49;12.32;;;5.00;;
59516;SDS011;45342;42.662;27.718;2024-01-06T11:19:57;8.80;;;4.82;;
59516;SDS011;45342;42.662;27.718;2024-01-06T11:22:39;14.02;;;5.20;;
59516;SDS011;45342;42.662;27.718;2024-01-06T11:25:05;13.23;;;5.30;;
59516;SDS011;45342;42.662;27.718;2024-01-06T11:27:32;11.98;;;5.38;;
59516;SDS011;45342;42.662;27.718;2024-01-06T11:32:31;12.18;;;5.07;;
59516;SDS011;45342;42.662;27.718;2024-01-06T11:40:08;14.52;;;6.10;;
59516;SDS011;45342;42.662;27.718;2024-01-06T11:42:36;13.43;;;6.13;;
59516;SDS011;45342;42.662;27.718;2024-01-06T11:45:05;16.52;;;6.70;;
59516;SDS011;45342;42.662;27.718;2024-01-06T11:47:32;12.93;;;5.72;;
59516;SDS011;45342;42.662;27.718;2024-01-06T11:49:58;15.15;;;6.97;;
59516;SDS011;45342;42.662;27.718;2024-01-06T11:52:26;14.00;;;6.55;;
59516;SDS011;45342;42.662;27.718;2024-01-06T11:54:52;15.13;;;6.60;;
59516;SDS011;45342;42.662;27.718;2024-01-06T12:03:53;14.13;;;5.78;;
59516;SDS011;45342;42.662;27.718;2024-01-06T12:06:24;13.52;;;6.47;;
59516;SDS011;45342;42.662;27.718;2024-01-06T12:09:02;13.93;;;6.32;;
59516;SDS011;45342;42.662;27.718;2024-01-06T12:12:00;15.75;;;6.65;;
59516;SDS011;45342;42.662;27.718;2024-01-06T12:14:33;15.57;;;6.53;;
59516;SDS011;45342;42.662;27.718;2024-01-06T12:17:14;13.48;;;6.40;;
59516;SDS011;45342;42.662;27.718;2024-01-06T12:19:43;12.73;;;6.07;;
59516;SDS011;45342;42.662;27.718;2024-01-06T12:22:12;14.27;;;6.70;;
59516;SDS011;45342;42.662;27.718;2024-01-06T12:24:41;13.77;;;6.38;;
59516;SDS011;45342;42.662;27.718;2024-01-06T12:27:08;14.10;;;6.05;;
59516;SDS011;45342;42.662;27.718;2024-01-06T12:29:39;16.02;;;6.43;;
59516;SDS011;45342;42.662;27.718;2024-01-06T12:32:06;14.00;;;6.53;;
59516;SDS011;45342;42.662;27.718;2024-01-06T12:34:44;12.35;;;6.22;;
59516;SDS011;45342;42.662;27.718;2024-01-06T12:37:23;15.48;;;6.75;;
59516;SDS011;45342;42.662;27.718;2024-01-06T12:39:49;15.52;;;6.47;;
59516;SDS011;45342;42.662;27.718;2024-01-06T12:42:26;19.05;;;6.30;;
59516;SDS011;45342;42.662;27.718;2024-01-06T12:44:53;19.88;;;6.70;;
59516;SDS011;45342;42.662;27.718;2024-01-06T12:47:23;16.17;;;6.90;;
59516;SDS011;45342;42.662;27.718;2024-01-06T12:52:14;15.98;;;6.60;;
59516;SDS011;45342;42.662;27.718;2024-01-06T12:54:40;15.80;;;6.68;;
59516;SDS011;45342;42.662;27.718;2024-01-06T12:57:07;12.70;;;6.50;;
59516;SDS011;45342;42.662;27.718;2024-01-06T12:59:33;15.88;;;6.78;;
59516;SDS011;45342;42.662;27.718;2024-01-06T13:01:58;11.30;;;5.95;;
59516;SDS011;45342;42.662;27.718;2024-01-06T13:04:24;13.52;;;6.70;;
59516;SDS011;45342;42.662;27.718;2024-01-06T13:06:50;15.80;;;6.47;;
59516;SDS011;45342;42.662;27.718;2024-01-06T13:09:16;15.27;;;6.80;;
59516;SDS011;45342;42.662;27.718;2024-01-06T13:11:42;12.00;;;6.55;;
59516;SDS011;45342;42.662;27.718;2024-01-06T13:14:11;14.68;;;6.20;;
59516;SDS011;45342;42.662;27.718;2024-01-06T13:16:36;15.57;;;6.63;;
59516;SDS011;45342;42.662;27.718;2024-01-06T13:19:02;12.80;;;6.93;;
59516;SDS011;45342;42.662;27.718;2024-01-06T13:21:29;13.25;;;6.45;;
59516;SDS011;45342;42.662;27.718;2024-01-06T13:23:55;13.90;;;6.95;;
59516;SDS011;45342;42.662;27.718;2024-01-06T13:26:26;13.10;;;6.97;;
59516;SDS011;45342;42.662;27.718;2024-01-06T13:28:53;12.32;;;6.63;;
59516;SDS011;45342;42.662;27.718;2024-01-06T13:31:19;12.75;;;6.57;;
59516;SDS011;45342;42.662;27.718;2024-01-06T13:36:11;16.50;;;6.97;;
59516;SDS011;45342;42.662;27.718;2024-01-06T13:38:37;16.55;;;6.90;;
59516;SDS011;45342;42.662;27.718;2024-01-06T13:41:04;16.00;;;7.75;;
59516;SDS011;45342;42.662;27.718;2024-01-06T13:43:30;12.35;;;6.70;;
59516;SDS011;45342;42.662;27.718;2024-01-06T13:45:57;14.05;;;6.68;;
59516;SDS011;45342;42.662;27.718;2024-01-06T13:48:23;16.38;;;7.50;;
59516;SDS011;45342;42.662;27.718;2024-01-06T13:50:48;13.95;;;6.80;;
59516;SDS011;45342;42.662;27.718;2024-01-06T13:53:15;13.20;;;7.50;;
59516;SDS011;45342;42.662;27.718;2024-01-06T13:55:41;15.10;;;7.40;;
59516;SDS011;45342;42.662;27.718;2024-01-06T13:58:06;13.30;;;6.78;;
59516;SDS011;45342;42.662;27.718;2024-01-06T14:00:34;14.80;;;7.32;;
59516;SDS011;45342;42.662;27.718;2024-01-06T14:03:01;16.55;;;8.07;;
59516;SDS011;45342;42.662;27.718;2024-01-06T14:05:27;14.60;;;7.35;;
59516;SDS011;45342;42.662;27.718;2024-01-06T14:07:53;15.18;;;7.32;;
59516;SDS011;45342;42.662;27.718;2024-01-06T14:10:19;11.25;;;6.28;;
59516;SDS011;45342;42.662;27.718;2024-01-06T14:12:45;11.70;;;6.55;;
59516;SDS011;45342;42.662;27.718;2024-01-06T14:15:11;13.95;;;7.07;;
59516;SDS011;45342;42.662;27.718;2024-01-06T14:17:37;11.30;;;6.65;;
59516;SDS011;45342;42.662;27.718;2024-01-06T14:20:04;10.93;;;6.25;;
59516;SDS011;45342;42.662;27.718;2024-01-06T14:22:30;11.90;;;6.75;;
59516;SDS011;45342;42.662;27.718;2024-01-06T14:24:56;11.93;;;6.72;;
59516;SDS011;45342;42.662;27.718;2024-01-06T14:27:22;12.25;;;6.30;;
59516;SDS011;45342;42.662;27.718;2024-01-06T14:29:48;10.98;;;5.97;;
59516;SDS011;45342;42.662;27.718;2024-01-06T14:32:14;11.15;;;5.97;;
59516;SDS011;45342;42.662;27.718;2024-01-06T14:34:40;13.05;;;6.10;;
59516;SDS011;45342;42.662;27.718;2024-01-06T14:37:05;12.70;;;5.93;;
59516;SDS011;45342;42.662;27.718;2024-01-06T14:39:31;14.52;;;6.28;;
59516;SDS011;45342;42.662;27.718;2024-01-06T14:41:57;10.32;;;6.00;;
59516;SDS011;45342;42.662;27.718;2024-01-06T14:44:23;10.48;;;5.90;;
59516;SDS011;45342;42.662;27.718;2024-01-06T14:46:49;9.70;;;6.40;;
59516;SDS011;45342;42.662;27.718;2024-01-06T14:51:41;10.38;;;5.55;;
59516;SDS011;45342;42.662;27.718;2024-01-06T14:54:07;10.45;;;6.05;;
59516;SDS011;45342;42.662;27.718;2024-01-06T14:56:33;14.05;;;6.45;;
59516;SDS011;45342;42.662;27.718;2024-01-06T14:59:04;13.90;;;6.38;;
59516;SDS011;45342;42.662;27.718;2024-01-06T15:01:31;16.30;;;6.18;;
59516;SDS011;45342;42.662;27.718;2024-01-06T15:03:57;13.25;;;6.63;;
59516;SDS011;45342;42.662;27.718;2024-01-06T15:06:22;21.63;;;6.60;;
59516;SDS011;45342;42.662;27.718;2024-01-06T15:08:48;15.50;;;5.90;;
59516;SDS011;45342;42.662;27.718;2024-01-06T15:11:14;13.20;;;6.20;;
59516;SDS011;45342;42.662;27.718;2024-01-06T15:13:40;14.60;;;6.22;;